sensor_id;sensor_type;location;lat;lon;timestamp;P1;durP1;ratioP1;P2;durP2;ratioP2
69057;SDS011;56128;37.534;-122.308;2024-02-23T00:01:52;6.03;;;1.73;;
69057;SDS011;56128;37.534;-122.308;2024-02-23T00:04:18;4.50;;;1.50;;
69057;SDS011;56128;37.534;-122.308;2024-02-23T00:06:45;3.15;;;1.70;;
69057;SDS011;56128;37.534;-122.308;2024-02-23T00:09:11;7.90;;;1.77;;
69057;SDS011;56128;37.534;-122.308;2024-02-23T00:11:40;5.97;;;1.95;;
69057;SDS011;56128;37.534;-122.308;2024-02-23T00:14:10;5.25;;;1.73;;
69057;SDS011;56128;37.534;-122.308;2024-02-23T00:16:39;5.47;;;1.65;;
69057;SDS011;56128;37.534;-122.308;2024-02-23T00:19:09;8.20;;;1.92;;
69057;SDS011;56128;37.534;-122.308;2024-02-23T00:21:36;3.45;;;1.77;;
69057;SDS011;56128;37.534;-122.308;2024-02-23T00:24:02;6.32;;;2.30;;
69057;SDS011;56128;37.534;-122.308;2024-02-23T00:26:28;5.60;;;1.92;;
69057;SDS011;56128;37.534;-122.308;2024-02-23T00:28:55;3.70;;;1.90;;
69057;SDS011;56128;37.534;-122.308;2024-02-23T00:31:21;4.95;;;1.88;;
69057;SDS011;56128;37.534;-122.308;2024-02-23T00:33:48;3.10;;;1.75;;
69057;SDS011;56128;37.534;-122.308;2024-02-23T00:36:14;6.15;;;1.85;;
69057;SDS011;56128;37.534;-122.308;2024-02-23T00:38:40;6.28;;;1.90;;
69057;SDS011;56128;37.534;-122.308;2024-02-23T00:41:06;7.90;;;2.10;;
69057;SDS011;56128;37.534;-122.308;2024-02-23T00:43:39;8.55;;;2.67;;
69057;SDS011;56128;37.534;-122.308;2024-02-23T00:46:06;5.22;;;1.77;;
69057;SDS011;56128;37.534;-122.308;2024-02-23T00:48:33;7.65;;;2.25;;
69057;SDS011;56128;37.534;-122.308;2024-02-23T00:51:01;5.32;;;1.90;;
69057;SDS011;56128;37.534;-122.308;2024-02-23T00:53:28;8.07;;;2.13;;
69057;SDS011;56128;37.534;-122.308;2024-02-23T00:55:56;9.95;;;2.35;;
69057;SDS011;56128;37.534;-122.308;2024-02-23T00:58:22;8.95;;;2.30;;
69057;SDS011;56128;37.534;-122.308;2024-02-23T01:00:48;13.45;;;3.00;;
69057;SDS011;56128;37.534;-122.308;2024-02-23T01:03:14;8.88;;;2.35;;
69057;SDS011;56128;37.534;-122.308;2024-02-23T01:05:40;7.90;;;2.33;;
69057;SDS011;56128;37.534;-122.308;2024-02-23T01:08:07;9.40;;;2.35;;
69057;SDS011;56128;37.534;-122.308;2024-02-23T01:10:34;8.35;;;2.15;;
69057;SDS011;56128;37.534;-122.308;2024-02-23T01:13:00;5.18;;;1.83;;
69057;SDS011;56128;37.534;-122.308;2024-02-23T01:15:26;7.32;;;2.17;;
69057;SDS011;56128;37.534;-122.308;2024-02-23T01:17:52;6.55;;;2.20;;
69057;SDS011;56128;37.534;-122.308;2024-02-23T01:20:19;4.78;;;2.20;;
69057;SDS011;56128;37.534;-122.308;2024-02-23T01:22:45;5.18;;;2.10;;
69057;SDS011;56128;37.534;-122.308;2024-02-23T01:25:11;9.13;;;2.58;;
69057;SDS011;56128;37.534;-122.308;2024-02-23T01:27:37;6.88;;;2.47;;
69057;SDS011;56128;37.534;-122.308;2024-02-23T01:30:05;7.70;;;2.22;;
69057;SDS011;56128;37.534;-122.308;2024-02-23T01:32:31;5.70;;;2.38;;
69057;SDS011;56128;37.534;-122.308;2024-02-23T01:34:58;8.07;;;2.10;;
69057;SDS011;56128;37.534;-122.308;2024-02-23T01:37:24;5.85;;;2.38;;
69057;SDS011;56128;37.534;-122.308;2024-02-23T01:39:50;9.80;;;2.17;;
69057;SDS011;56128;37.534;-122.308;2024-02-23T01:42:16;4.43;;;2.15;;
69057;SDS011;56128;37.534;-122.308;2024-02-23T01:44:43;6.53;;;2.38;;
69057;SDS011;56128;37.534;-122.308;2024-02-23T01:47:09;8.35;;;2.40;;
69057;SDS011;56128;37.534;-122.308;2024-02-23T01:49:36;9.52;;;2.40;;
69057;SDS011;56128;37.534;-122.308;2024-02-23T01:52:03;6.47;;;2.70;;
69057;SDS011;56128;37.534;-122.308;2024-02-23T01:54:30;8.23;;;2.30;;
69057;SDS011;56128;37.534;-122.308;2024-02-23T01:56:57;7.30;;;2.30;;
69057;SDS011;56128;37.534;-122.308;2024-02-23T01:59:25;9.43;;;2.88;;
69057;SDS011;56128;37.534;-122.308;2024-02-23T02:01:51;8.77;;;2.55;;
69057;SDS011;56128;37.534;-122.308;2024-02-23T02:04:18;6.40;;;2.20;;
69057;SDS011;56128;37.534;-122.308;2024-02-23T02:06:45;9.00;;;2.83;;
69057;SDS011;56128;37.534;-122.308;2024-02-23T02:09:12;7.43;;;2.40;;
69057;SDS011;56128;37.534;-122.308;2024-02-23T02:11:47;7.93;;;2.25;;
69057;SDS011;56128;37.534;-122.308;2024-02-23T02:14:14;7.47;;;2.80;;
69057;SDS011;56128;37.534;-122.308;2024-02-23T02:16:41;7.32;;;2.20;;
69057;SDS011;56128;37.534;-122.308;2024-02-23T02:19:09;8.23;;;2.70;;
69057;SDS011;56128;37.534;-122.308;2024-02-23T02:21:36;6.43;;;2.50;;
69057;SDS011;56128;37.534;-122.308;2024-02-23T02:24:03;7.53;;;2.40;;
69057;SDS011;56128;37.534;-122.308;2024-02-23T02:26:30;14.73;;;2.90;;
69057;SDS011;56128;37.534;-122.308;2024-02-23T02:28:56;8.52;;;2.70;;
69057;SDS011;56128;37.534;-122.308;2024-02-23T02:31:23;6.90;;;2.70;;
69057;SDS011;56128;37.534;-122.308;2024-02-23T02:33:49;6.38;;;2.80;;
69057;SDS011;56128;37.534;-122.308;2024-02-23T02:36:15;9.15;;;2.78;;
69057;SDS011;56128;37.534;-122.308;2024-02-23T02:38:41;10.43;;;2.65;;
69057;SDS011;56128;37.534;-122.308;2024-02-23T02:41:08;9.30;;;3.28;;
69057;SDS011;56128;37.534;-122.308;2024-02-23T02:43:34;12.10;;;3.28;;
69057;SDS011;56128;37.534;-122.308;2024-02-23T02:46:01;9.18;;;3.17;;
69057;SDS011;56128;37.534;-122.308;2024-02-23T02:48:27;7.45;;;3.95;;
69057;SDS011;56128;37.534;-122.308;2024-02-23T02:50:53;6.28;;;2.72;;
69057;SDS011;56128;37.534;-122.308;2024-02-23T02:53:20;10.32;;;3.35;;
69057;SDS011;56128;37.534;-122.308;2024-02-23T02:55:46;6.75;;;3.17;;
69057;SDS011;56128;37.534;-122.308;2024-02-23T02:58:13;5.90;;;3.10;;
69057;SDS011;56128;37.534;-122.308;2024-02-23T03:00:39;7.85;;;3.13;;
69057;SDS011;56128;37.534;-122.308;2024-02-23T03:03:06;9.07;;;3.00;;
69057;SDS011;56128;37.534;-122.308;2024-02-23T03:05:32;8.20;;;3.20;;
69057;SDS011;56128;37.534;-122.308;2024-02-23T03:07:58;11.43;;;3.20;;
69057;SDS011;56128;37.534;-122.308;2024-02-23T03:10:24;7.45;;;3.03;;
69057;SDS011;56128;37.534;-122.308;2024-02-23T03:12:51;6.90;;;2.90;;
69057;SDS011;56128;37.534;-122.308;2024-02-23T03:15:17;9.23;;;3.03;;
69057;SDS011;56128;37.534;-122.308;2024-02-23T03:17:43;9.32;;;3.10;;
69057;SDS011;56128;37.534;-122.308;2024-02-23T03:20:10;10.23;;;2.95;;
69057;SDS011;56128;37.534;-122.308;2024-02-23T03:22:37;11.50;;;3.42;;
69057;SDS011;56128;37.534;-122.308;2024-02-23T03:25:03;10.43;;;3.30;;
69057;SDS011;56128;37.534;-122.308;2024-02-23T03:27:33;12.02;;;3.47;;
69057;SDS011;56128;37.534;-122.308;2024-02-23T03:30:04;14.45;;;3.38;;
69057;SDS011;56128;37.534;-122.308;2024-02-23T03:32:33;8.70;;;3.00;;
69057;SDS011;56128;37.534;-122.308;2024-02-23T03:35:03;11.15;;;3.47;;
69057;SDS011;56128;37.534;-122.308;2024-02-23T03:37:30;12.13;;;3.53;;
69057;SDS011;56128;37.534;-122.308;2024-02-23T03:39:56;10.25;;;3.15;;
69057;SDS011;56128;37.534;-122.308;2024-02-23T03:42:23;8.98;;;2.97;;
69057;SDS011;56128;37.534;-122.308;2024-02-23T03:44:49;10.60;;;3.58;;
69057;SDS011;56128;37.534;-122.308;2024-02-23T03:47:16;10.80;;;3.08;;
69057;SDS011;56128;37.534;-122.308;2024-02-23T03:49:42;7.50;;;3.20;;
69057;SDS011;56128;37.534;-122.308;2024-02-23T03:52:08;8.93;;;3.10;;
69057;SDS011;56128;37.534;-122.308;2024-02-23T03:54:34;9.65;;;2.90;;
69057;SDS011;56128;37.534;-122.308;2024-02-23T03:57:00;17.00;;;3.45;;
69057;SDS011;56128;37.534;-122.308;2024-02-23T03:59:28;9.05;;;2.78;;
69057;SDS011;56128;37.534;-122.308;2024-02-23T04:01:54;10.60;;;2.65;;
69057;SDS011;56128;37.534;-122.308;2024-02-23T04:04:20;8.48;;;3.08;;
69057;SDS011;56128;37.534;-122.308;2024-02-23T04:06:46;10.57;;;3.05;;
69057;SDS011;56128;37.534;-122.308;2024-02-23T04:09:12;10.18;;;3.20;;
69057;SDS011;56128;37.534;-122.308;2024-02-23T04:11:42;14.10;;;3.45;;
69057;SDS011;56128;37.534;-122.308;2024-02-23T04:14:08;9.20;;;3.13;;
69057;SDS011;56128;37.534;-122.308;2024-02-23T04:16:34;10.30;;;3.25;;
69057;SDS011;56128;37.534;-122.308;2024-02-23T04:19:00;6.88;;;2.85;;
69057;SDS011;56128;37.534;-122.308;2024-02-23T04:21:27;9.25;;;3.22;;
69057;SDS011;56128;37.534;-122.308;2024-02-23T04:23:53;10.95;;;3.22;;
69057;SDS011;56128;37.534;-122.308;2024-02-23T04:26:19;9.13;;;2.88;;
69057;SDS011;56128;37.534;-122.308;2024-02-23T04:28:45;9.65;;;3.15;;
69057;SDS011;56128;37.534;-122.308;2024-02-23T04:31:11;12.30;;;3.63;;
69057;SDS011;56128;37.534;-122.308;2024-02-23T04:33:38;8.45;;;3.05;;
69057;SDS011;56128;37.534;-122.308;2024-02-23T04:36:04;13.02;;;2.78;;
69057;SDS011;56128;37.534;-122.308;2024-02-23T04:38:35;12.98;;;3.30;;
69057;SDS011;56128;37.534;-122.308;2024-02-23T04:41:04;10.75;;;3.20;;
69057;SDS011;56128;37.534;-122.308;2024-02-23T04:43:30;14.80;;;3.38;;
69057;SDS011;56128;37.534;-122.308;2024-02-23T04:45:57;13.45;;;4.00;;
69057;SDS011;56128;37.534;-122.308;2024-02-23T04:48:23;10.98;;;3.15;;
69057;SDS011;56128;37.534;-122.308;2024-02-23T04:50:49;8.50;;;3.28;;
69057;SDS011;56128;37.534;-122.308;2024-02-23T04:53:16;9.63;;;3.35;;
69057;SDS011;56128;37.534;-122.308;2024-02-23T04:55:42;9.70;;;3.58;;
69057;SDS011;56128;37.534;-122.308;2024-02-23T04:58:08;14.48;;;3.42;;
69057;SDS011;56128;37.534;-122.308;2024-02-23T05:00:34;11.88;;;3.50;;
69057;SDS011;56128;37.534;-122.308;2024-02-23T05:03:00;8.80;;;3.05;;
69057;SDS011;56128;37.534;-122.308;2024-02-23T05:05:30;13.15;;;3.13;;
69057;SDS011;56128;37.534;-122.308;2024-02-23T05:07:57;11.15;;;2.92;;
69057;SDS011;56128;37.534;-122.308;2024-02-23T05:10:23;13.52;;;3.60;;
69057;SDS011;56128;37.534;-122.308;2024-02-23T05:12:49;10.13;;;3.67;;
69057;SDS011;56128;37.534;-122.308;2024-02-23T05:15:16;15.35;;;3.67;;
69057;SDS011;56128;37.534;-122.308;2024-02-23T05:17:42;13.18;;;3.30;;
69057;SDS011;56128;37.534;-122.308;2024-02-23T05:20:08;11.25;;;3.45;;
69057;SDS011;56128;37.534;-122.308;2024-02-23T05:22:38;12.55;;;3.42;;
69057;SDS011;56128;37.534;-122.308;2024-02-23T05:25:05;11.55;;;3.75;;
69057;SDS011;56128;37.534;-122.308;2024-02-23T05:27:32;9.98;;;3.25;;
69057;SDS011;56128;37.534;-122.308;2024-02-23T05:29:58;11.73;;;3.55;;
69057;SDS011;56128;37.534;-122.308;2024-02-23T05:32:25;10.52;;;3.78;;
69057;SDS011;56128;37.534;-122.308;2024-02-23T05:34:51;13.05;;;3.22;;
69057;SDS011;56128;37.534;-122.308;2024-02-23T05:37:19;10.85;;;3.50;;
69057;SDS011;56128;37.534;-122.308;2024-02-23T05:39:45;7.05;;;3.53;;
69057;SDS011;56128;37.534;-122.308;2024-02-23T05:42:12;12.55;;;3.45;;
69057;SDS011;56128;37.534;-122.308;2024-02-23T05:44:38;13.88;;;3.70;;
69057;SDS011;56128;37.534;-122.308;2024-02-23T05:47:05;12.07;;;3.40;;
69057;SDS011;56128;37.534;-122.308;2024-02-23T05:49:31;11.88;;;3.53;;
69057;SDS011;56128;37.534;-122.308;2024-02-23T05:52:17;12.13;;;3.78;;
69057;SDS011;56128;37.534;-122.308;2024-02-23T05:54:43;12.35;;;3.70;;
69057;SDS011;56128;37.534;-122.308;2024-02-23T05:57:09;9.40;;;3.70;;
69057;SDS011;56128;37.534;-122.308;2024-02-23T05:59:35;11.60;;;3.75;;
69057;SDS011;56128;37.534;-122.308;2024-02-23T06:02:02;12.13;;;4.03;;
69057;SDS011;56128;37.534;-122.308;2024-02-23T06:04:28;13.90;;;4.10;;
69057;SDS011;56128;37.534;-122.308;2024-02-23T06:06:54;11.20;;;3.58;;
69057;SDS011;56128;37.534;-122.308;2024-02-23T06:09:20;14.13;;;3.75;;
69057;SDS011;56128;37.534;-122.308;2024-02-23T06:11:46;11.82;;;3.58;;
69057;SDS011;56128;37.534;-122.308;2024-02-23T06:14:13;6.93;;;3.92;;
69057;SDS011;56128;37.534;-122.308;2024-02-23T06:16:39;9.73;;;4.00;;
69057;SDS011;56128;37.534;-122.308;2024-02-23T06:19:05;11.07;;;3.83;;
69057;SDS011;56128;37.534;-122.308;2024-02-23T06:21:32;9.07;;;3.80;;
69057;SDS011;56128;37.534;-122.308;2024-02-23T06:23:58;16.65;;;4.30;;
69057;SDS011;56128;37.534;-122.308;2024-02-23T06:26:24;12.80;;;3.78;;
69057;SDS011;56128;37.534;-122.308;2024-02-23T06:28:50;11.35;;;3.80;;
69057;SDS011;56128;37.534;-122.308;2024-02-23T06:31:16;11.15;;;4.10;;
69057;SDS011;56128;37.534;-122.308;2024-02-23T06:33:42;11.02;;;3.90;;
69057;SDS011;56128;37.534;-122.308;2024-02-23T06:36:09;12.13;;;3.88;;
69057;SDS011;56128;37.534;-122.308;2024-02-23T06:38:35;10.98;;;3.88;;
69057;SDS011;56128;37.534;-122.308;2024-02-23T06:41:01;11.30;;;3.97;;
69057;SDS011;56128;37.534;-122.308;2024-02-23T06:43:27;10.32;;;3.97;;
69057;SDS011;56128;37.534;-122.308;2024-02-23T06:45:53;15.00;;;4.20;;
69057;SDS011;56128;37.534;-122.308;2024-02-23T06:48:20;12.95;;;4.18;;
69057;SDS011;56128;37.534;-122.308;2024-02-23T06:50:46;12.32;;;4.15;;
69057;SDS011;56128;37.534;-122.308;2024-02-23T06:53:12;11.32;;;4.25;;
69057;SDS011;56128;37.534;-122.308;2024-02-23T06:55:38;8.65;;;3.85;;
69057;SDS011;56128;37.534;-122.308;2024-02-23T06:58:04;14.00;;;4.55;;
69057;SDS011;56128;37.534;-122.308;2024-02-23T07:00:32;11.15;;;3.97;;
69057;SDS011;56128;37.534;-122.308;2024-02-23T07:02:58;10.85;;;4.28;;
69057;SDS011;56128;37.534;-122.308;2024-02-23T07:05:26;12.77;;;4.68;;
69057;SDS011;56128;37.534;-122.308;2024-02-23T07:07:52;10.70;;;4.38;;
69057;SDS011;56128;37.534;-122.308;2024-02-23T07:10:18;10.50;;;4.20;;
69057;SDS011;56128;37.534;-122.308;2024-02-23T07:12:47;11.60;;;4.05;;
69057;SDS011;56128;37.534;-122.308;2024-02-23T07:15:13;11.88;;;4.32;;
69057;SDS011;56128;37.534;-122.308;2024-02-23T07:17:40;9.25;;;4.10;;
69057;SDS011;56128;37.534;-122.308;2024-02-23T07:20:06;14.10;;;3.85;;
69057;SDS011;56128;37.534;-122.308;2024-02-23T07:22:32;11.27;;;4.20;;
69057;SDS011;56128;37.534;-122.308;2024-02-23T07:24:59;14.27;;;4.72;;
69057;SDS011;56128;37.534;-122.308;2024-02-23T07:27:28;14.05;;;3.90;;
69057;SDS011;56128;37.534;-122.308;2024-02-23T07:29:56;13.43;;;3.80;;
69057;SDS011;56128;37.534;-122.308;2024-02-23T07:32:22;13.68;;;4.20;;
69057;SDS011;56128;37.534;-122.308;2024-02-23T07:34:49;12.80;;;4.30;;
69057;SDS011;56128;37.534;-122.308;2024-02-23T07:37:15;15.05;;;4.10;;
69057;SDS011;56128;37.534;-122.308;2024-02-23T07:39:41;12.85;;;4.22;;
69057;SDS011;56128;37.534;-122.308;2024-02-23T07:42:07;10.32;;;4.32;;
69057;SDS011;56128;37.534;-122.308;2024-02-23T07:44:35;10.77;;;4.28;;
69057;SDS011;56128;37.534;-122.308;2024-02-23T07:47:02;9.32;;;4.03;;
69057;SDS011;56128;37.534;-122.308;2024-02-23T07:49:29;10.85;;;3.78;;
69057;SDS011;56128;37.534;-122.308;2024-02-23T07:51:55;9.93;;;4.30;;
69057;SDS011;56128;37.534;-122.308;2024-02-23T07:54:21;10.68;;;4.13;;
69057;SDS011;56128;37.534;-122.308;2024-02-23T07:56:47;10.48;;;4.15;;
69057;SDS011;56128;37.534;-122.308;2024-02-23T07:59:14;17.42;;;4.20;;
69057;SDS011;56128;37.534;-122.308;2024-02-23T08:01:40;14.45;;;4.55;;
69057;SDS011;56128;37.534;-122.308;2024-02-23T08:04:06;11.27;;;4.13;;
69057;SDS011;56128;37.534;-122.308;2024-02-23T08:06:32;11.43;;;4.13;;
69057;SDS011;56128;37.534;-122.308;2024-02-23T08:08:58;11.10;;;4.22;;
69057;SDS011;56128;37.534;-122.308;2024-02-23T08:11:25;18.15;;;6.00;;
69057;SDS011;56128;37.534;-122.308;2024-02-23T08:13:51;9.98;;;3.90;;
69057;SDS011;56128;37.534;-122.308;2024-02-23T08:16:17;9.25;;;4.13;;
69057;SDS011;56128;37.534;-122.308;2024-02-23T08:18:43;9.13;;;3.55;;
69057;SDS011;56128;37.534;-122.308;2024-02-23T08:21:12;11.98;;;4.47;;
69057;SDS011;56128;37.534;-122.308;2024-02-23T08:23:38;13.57;;;4.53;;
69057;SDS011;56128;37.534;-122.308;2024-02-23T08:26:05;10.90;;;4.43;;
69057;SDS011;56128;37.534;-122.308;2024-02-23T08:28:32;10.20;;;4.28;;
69057;SDS011;56128;37.534;-122.308;2024-02-23T08:30:58;11.02;;;3.97;;
69057;SDS011;56128;37.534;-122.308;2024-02-23T08:33:24;9.48;;;4.03;;
69057;SDS011;56128;37.534;-122.308;2024-02-23T08:35:50;11.70;;;4.32;;
69057;SDS011;56128;37.534;-122.308;2024-02-23T08:38:16;11.52;;;4.30;;
69057;SDS011;56128;37.534;-122.308;2024-02-23T08:40:43;14.65;;;4.97;;
69057;SDS011;56128;37.534;-122.308;2024-02-23T08:43:10;11.43;;;4.35;;
69057;SDS011;56128;37.534;-122.308;2024-02-23T08:45:37;8.98;;;4.00;;
69057;SDS011;56128;37.534;-122.308;2024-02-23T08:48:03;13.43;;;4.63;;
69057;SDS011;56128;37.534;-122.308;2024-02-23T08:50:29;13.35;;;4.38;;
69057;SDS011;56128;37.534;-122.308;2024-02-23T08:52:55;15.38;;;4.43;;
69057;SDS011;56128;37.534;-122.308;2024-02-23T08:55:21;10.48;;;4.50;;
69057;SDS011;56128;37.534;-122.308;2024-02-23T08:57:47;13.20;;;4.40;;
69057;SDS011;56128;37.534;-122.308;2024-02-23T09:00:14;13.45;;;4.70;;
69057;SDS011;56128;37.534;-122.308;2024-02-23T09:02:40;11.05;;;3.95;;
69057;SDS011;56128;37.534;-122.308;2024-02-23T09:05:09;9.98;;;4.35;;
69057;SDS011;56128;37.534;-122.308;2024-02-23T09:07:35;11.75;;;4.28;;
69057;SDS011;56128;37.534;-122.308;2024-02-23T09:10:02;11.20;;;4.38;;
69057;SDS011;56128;37.534;-122.308;2024-02-23T09:12:30;13.45;;;4.20;;
69057;SDS011;56128;37.534;-122.308;2024-02-23T09:14:56;11.35;;;4.65;;
69057;SDS011;56128;37.534;-122.308;2024-02-23T09:17:22;15.57;;;4.55;;
69057;SDS011;56128;37.534;-122.308;2024-02-23T09:19:48;9.55;;;4.45;;
69057;SDS011;56128;37.534;-122.308;2024-02-23T09:22:15;14.60;;;4.50;;
69057;SDS011;56128;37.534;-122.308;2024-02-23T09:24:41;13.38;;;4.53;;
69057;SDS011;56128;37.534;-122.308;2024-02-23T09:27:08;16.88;;;5.53;;
69057;SDS011;56128;37.534;-122.308;2024-02-23T09:29:34;12.05;;;4.65;;
69057;SDS011;56128;37.534;-122.308;2024-02-23T09:32:00;10.25;;;4.40;;
69057;SDS011;56128;37.534;-122.308;2024-02-23T09:34:27;12.32;;;4.78;;
69057;SDS011;56128;37.534;-122.308;2024-02-23T09:36:54;11.20;;;4.40;;
69057;SDS011;56128;37.534;-122.308;2024-02-23T09:39:21;12.82;;;4.93;;
69057;SDS011;56128;37.534;-122.308;2024-02-23T09:41:49;11.40;;;4.60;;
69057;SDS011;56128;37.534;-122.308;2024-02-23T09:44:16;11.40;;;4.75;;
69057;SDS011;56128;37.534;-122.308;2024-02-23T09:46:46;10.30;;;4.95;;
69057;SDS011;56128;37.534;-122.308;2024-02-23T09:49:13;17.15;;;4.90;;
69057;SDS011;56128;37.534;-122.308;2024-02-23T09:51:44;15.70;;;4.82;;
69057;SDS011;56128;37.534;-122.308;2024-02-23T09:54:10;11.05;;;4.72;;
69057;SDS011;56128;37.534;-122.308;2024-02-23T09:56:36;15.40;;;4.60;;
69057;SDS011;56128;37.534;-122.308;2024-02-23T09:59:03;16.92;;;5.05;;
69057;SDS011;56128;37.534;-122.308;2024-02-23T10:01:30;13.88;;;4.90;;
69057;SDS011;56128;37.534;-122.308;2024-02-23T10:03:58;15.98;;;5.10;;
69057;SDS011;56128;37.534;-122.308;2024-02-23T10:06:26;10.95;;;4.35;;
69057;SDS011;56128;37.534;-122.308;2024-02-23T10:08:55;16.55;;;4.63;;
69057;SDS011;56128;37.534;-122.308;2024-02-23T10:11:22;13.73;;;4.70;;
69057;SDS011;56128;37.534;-122.308;2024-02-23T10:13:49;12.52;;;5.00;;
69057;SDS011;56128;37.534;-122.308;2024-02-23T10:16:17;12.70;;;4.97;;
69057;SDS011;56128;37.534;-122.308;2024-02-23T10:18:47;10.10;;;4.65;;
69057;SDS011;56128;37.534;-122.308;2024-02-23T10:21:15;9.32;;;4.55;;
69057;SDS011;56128;37.534;-122.308;2024-02-23T10:23:42;12.68;;;4.43;;
69057;SDS011;56128;37.534;-122.308;2024-02-23T10:26:10;14.95;;;4.93;;
69057;SDS011;56128;37.534;-122.308;2024-02-23T10:28:39;10.93;;;4.78;;
69057;SDS011;56128;37.534;-122.308;2024-02-23T10:31:05;11.30;;;4.72;;
69057;SDS011;56128;37.534;-122.308;2024-02-23T10:33:32;12.75;;;4.78;;
69057;SDS011;56128;37.534;-122.308;2024-02-23T10:35:58;11.70;;;5.53;;
69057;SDS011;56128;37.534;-122.308;2024-02-23T10:38:27;11.90;;;4.93;;
69057;SDS011;56128;37.534;-122.308;2024-02-23T10:40:55;10.43;;;5.28;;
69057;SDS011;56128;37.534;-122.308;2024-02-23T10:43:33;11.50;;;5.22;;
69057;SDS011;56128;37.534;-122.308;2024-02-23T10:46:20;9.45;;;4.82;;
69057;SDS011;56128;37.534;-122.308;2024-02-23T10:48:47;11.63;;;4.88;;
69057;SDS011;56128;37.534;-122.308;2024-02-23T10:51:15;15.40;;;5.32;;
69057;SDS011;56128;37.534;-122.308;2024-02-23T10:53:41;12.23;;;4.88;;
69057;SDS011;56128;37.534;-122.308;2024-02-23T10:56:11;12.23;;;4.95;;
69057;SDS011;56128;37.534;-122.308;2024-02-23T10:58:38;11.65;;;5.30;;
69057;SDS011;56128;37.534;-122.308;2024-02-23T11:01:05;13.60;;;5.35;;
69057;SDS011;56128;37.534;-122.308;2024-02-23T11:03:34;13.70;;;5.65;;
69057;SDS011;56128;37.534;-122.308;2024-02-23T11:06:05;14.55;;;5.80;;
69057;SDS011;56128;37.534;-122.308;2024-02-23T11:08:35;18.58;;;5.72;;
69057;SDS011;56128;37.534;-122.308;2024-02-23T11:11:08;15.43;;;6.07;;
69057;SDS011;56128;37.534;-122.308;2024-02-23T11:13:38;13.77;;;5.20;;
69057;SDS011;56128;37.534;-122.308;2024-02-23T11:16:05;11.05;;;5.35;;
69057;SDS011;56128;37.534;-122.308;2024-02-23T11:18:32;14.23;;;5.70;;
69057;SDS011;56128;37.534;-122.308;2024-02-23T11:21:01;11.45;;;5.43;;
69057;SDS011;56128;37.534;-122.308;2024-02-23T11:23:40;14.02;;;5.82;;
69057;SDS011;56128;37.534;-122.308;2024-02-23T11:26:10;12.90;;;5.30;;
69057;SDS011;56128;37.534;-122.308;2024-02-23T11:31:19;14.43;;;5.25;;
69057;SDS011;56128;37.534;-122.308;2024-02-23T11:34:08;16.00;;;5.40;;
69057;SDS011;56128;37.534;-122.308;2024-02-23T11:36:35;15.32;;;5.20;;
69057;SDS011;56128;37.534;-122.308;2024-02-23T11:39:03;14.43;;;5.20;;
69057;SDS011;56128;37.534;-122.308;2024-02-23T11:41:30;13.68;;;5.93;;
69057;SDS011;56128;37.534;-122.308;2024-02-23T11:43:57;12.45;;;5.43;;
69057;SDS011;56128;37.534;-122.308;2024-02-23T11:46:26;12.55;;;5.90;;
69057;SDS011;56128;37.534;-122.308;2024-02-23T11:48:52;15.13;;;5.95;;
69057;SDS011;56128;37.534;-122.308;2024-02-23T11:51:19;14.25;;;6.03;;
69057;SDS011;56128;37.534;-122.308;2024-02-23T11:53:47;16.08;;;6.18;;
69057;SDS011;56128;37.534;-122.308;2024-02-23T11:56:14;18.13;;;7.13;;
69057;SDS011;56128;37.534;-122.308;2024-02-23T11:58:41;14.43;;;6.90;;
69057;SDS011;56128;37.534;-122.308;2024-02-23T12:01:07;17.20;;;6.90;;
69057;SDS011;56128;37.534;-122.308;2024-02-23T12:03:33;19.40;;;7.07;;
69057;SDS011;56128;37.534;-122.308;2024-02-23T12:06:00;23.20;;;7.18;;
69057;SDS011;56128;37.534;-122.308;2024-02-23T12:08:27;20.52;;;7.30;;
69057;SDS011;56128;37.534;-122.308;2024-02-23T12:10:56;18.05;;;7.35;;
69057;SDS011;56128;37.534;-122.308;2024-02-23T12:13:25;17.63;;;6.78;;
69057;SDS011;56128;37.534;-122.308;2024-02-23T12:15:55;21.98;;;7.40;;
69057;SDS011;56128;37.534;-122.308;2024-02-23T12:18:24;19.40;;;7.68;;
69057;SDS011;56128;37.534;-122.308;2024-02-23T12:21:01;21.65;;;8.63;;
69057;SDS011;56128;37.534;-122.308;2024-02-23T12:23:43;18.10;;;7.75;;
69057;SDS011;56128;37.534;-122.308;2024-02-23T12:26:12;24.92;;;8.73;;
69057;SDS011;56128;37.534;-122.308;2024-02-23T12:28:39;27.67;;;9.55;;
69057;SDS011;56128;37.534;-122.308;2024-02-23T12:31:06;20.38;;;7.95;;
69057;SDS011;56128;37.534;-122.308;2024-02-23T12:33:33;23.92;;;8.82;;
69057;SDS011;56128;37.534;-122.308;2024-02-23T12:36:01;19.98;;;8.57;;
69057;SDS011;56128;37.534;-122.308;2024-02-23T12:38:29;23.70;;;8.70;;
69057;SDS011;56128;37.534;-122.308;2024-02-23T12:40:55;23.45;;;8.90;;
69057;SDS011;56128;37.534;-122.308;2024-02-23T12:43:21;28.27;;;9.10;;
69057;SDS011;56128;37.534;-122.308;2024-02-23T12:45:55;23.90;;;8.82;;
69057;SDS011;56128;37.534;-122.308;2024-02-23T12:48:22;28.38;;;8.95;;
69057;SDS011;56128;37.534;-122.308;2024-02-23T12:50:49;23.15;;;8.75;;
69057;SDS011;56128;37.534;-122.308;2024-02-23T12:53:32;24.17;;;8.52;;
69057;SDS011;56128;37.534;-122.308;2024-02-23T12:56:05;25.00;;;9.05;;
69057;SDS011;56128;37.534;-122.308;2024-02-23T12:58:36;25.67;;;8.20;;
69057;SDS011;56128;37.534;-122.308;2024-02-23T13:01:04;19.25;;;8.52;;
69057;SDS011;56128;37.534;-122.308;2024-02-23T13:03:32;26.83;;;9.50;;
69057;SDS011;56128;37.534;-122.308;2024-02-23T13:06:02;25.13;;;8.20;;
69057;SDS011;56128;37.534;-122.308;2024-02-23T13:08:29;21.75;;;8.48;;
69057;SDS011;56128;37.534;-122.308;2024-02-23T13:10:55;23.60;;;8.80;;
69057;SDS011;56128;37.534;-122.308;2024-02-23T13:13:23;20.65;;;7.93;;
69057;SDS011;56128;37.534;-122.308;2024-02-23T13:15:50;20.48;;;8.30;;
69057;SDS011;56128;37.534;-122.308;2024-02-23T13:18:17;24.75;;;7.75;;
69057;SDS011;56128;37.534;-122.308;2024-02-23T13:20:44;21.42;;;7.75;;
69057;SDS011;56128;37.534;-122.308;2024-02-23T13:23:11;19.48;;;7.30;;
69057;SDS011;56128;37.534;-122.308;2024-02-23T13:25:38;17.63;;;7.00;;
69057;SDS011;56128;37.534;-122.308;2024-02-23T13:28:05;21.42;;;7.47;;
69057;SDS011;56128;37.534;-122.308;2024-02-23T13:30:32;20.27;;;7.65;;
69057;SDS011;56128;37.534;-122.308;2024-02-23T13:32:59;20.20;;;7.25;;
69057;SDS011;56128;37.534;-122.308;2024-02-23T13:35:28;16.80;;;6.55;;
69057;SDS011;56128;37.534;-122.308;2024-02-23T13:37:55;20.65;;;7.05;;
69057;SDS011;56128;37.534;-122.308;2024-02-23T13:40:22;23.13;;;7.32;;
69057;SDS011;56128;37.534;-122.308;2024-02-23T13:42:49;20.77;;;7.30;;
69057;SDS011;56128;37.534;-122.308;2024-02-23T13:45:15;17.83;;;6.75;;
69057;SDS011;56128;37.534;-122.308;2024-02-23T13:47:42;22.70;;;7.90;;
69057;SDS011;56128;37.534;-122.308;2024-02-23T13:50:10;20.40;;;7.68;;
69057;SDS011;56128;37.534;-122.308;2024-02-23T13:52:36;17.38;;;7.38;;
69057;SDS011;56128;37.534;-122.308;2024-02-23T13:55:03;22.05;;;7.72;;
69057;SDS011;56128;37.534;-122.308;2024-02-23T13:57:29;19.63;;;7.40;;
69057;SDS011;56128;37.534;-122.308;2024-02-23T13:59:55;20.73;;;7.38;;
69057;SDS011;56128;37.534;-122.308;2024-02-23T14:02:25;18.50;;;7.72;;
69057;SDS011;56128;37.534;-122.308;2024-02-23T14:04:52;20.65;;;8.00;;